sensor_id;sensor_type;location;lat;lon;timestamp;P1;durP1;ratioP1;P2;durP2;ratioP2
21036;SDS011;10677;50.942;4.028;2023-07-02T00:00:57;30.98;;;14.63;;
21036;SDS011;10677;50.942;4.028;2023-07-02T00:03:24;33.72;;;15.95;;
21036;SDS011;10677;50.942;4.028;2023-07-02T00:05:49;34.20;;;15.70;;
21036;SDS011;10677;50.942;4.028;2023-07-02T00:08:19;33.63;;;16.67;;
21036;SDS011;10677;50.942;4.028;2023-07-02T00:10:45;32.53;;;17.17;;
21036;SDS011;10677;50.942;4.028;2023-07-02T00:13:11;27.92;;;16.38;;
21036;SDS011;10677;50.942;4.028;2023-07-02T00:15:36;36.55;;;16.65;;
21036;SDS011;10677;50.942;4.028;2023-07-02T00:18:02;34.05;;;16.48;;
21036;SDS011;10677;50.942;4.028;2023-07-02T00:20:27;34.80;;;17.67;;
21036;SDS011;10677;50.942;4.028;2023-07-02T00:22:55;31.95;;;15.68;;
21036;SDS011;10677;50.942;4.028;2023-07-02T00:25:21;32.30;;;16.38;;
21036;SDS011;10677;50.942;4.028;2023-07-02T00:27:47;35.38;;;16.38;;
21036;SDS011;10677;50.942;4.028;2023-07-02T00:30:12;35.42;;;16.48;;
21036;SDS011;10677;50.942;4.028;2023-07-02T00:32:38;35.83;;;17.38;;
21036;SDS011;10677;50.942;4.028;2023-07-02T00:35:04;31.50;;;16.75;;
21036;SDS011;10677;50.942;4.028;2023-07-02T00:37:30;32.65;;;16.95;;
21036;SDS011;10677;50.942;4.028;2023-07-02T00:39:56;37.25;;;18.17;;
21036;SDS011;10677;50.942;4.028;2023-07-02T00:42:22;43.08;;;17.63;;
21036;SDS011;10677;50.942;4.028;2023-07-02T00:44:48;33.47;;;17.52;;
21036;SDS011;10677;50.942;4.028;2023-07-02T00:47:16;41.20;;;17.45;;
21036;SDS011;10677;50.942;4.028;2023-07-02T00:49:41;38.22;;;17.77;;
21036;SDS011;10677;50.942;4.028;2023-07-02T00:52:07;37.95;;;19.33;;
21036;SDS011;10677;50.942;4.028;2023-07-02T00:54:33;36.40;;;17.77;;
21036;SDS011;10677;50.942;4.028;2023-07-02T00:56:58;40.25;;;18.92;;
21036;SDS011;10677;50.942;4.028;2023-07-02T00:59:31;37.72;;;18.45;;
21036;SDS011;10677;50.942;4.028;2023-07-02T01:02:00;47.55;;;19.50;;
21036;SDS011;10677;50.942;4.028;2023-07-02T01:04:26;36.38;;;18.92;;
21036;SDS011;10677;50.942;4.028;2023-07-02T01:06:52;40.75;;;19.17;;
21036;SDS011;10677;50.942;4.028;2023-07-02T01:09:22;40.42;;;18.85;;
21036;SDS011;10677;50.942;4.028;2023-07-02T01:11:51;41.20;;;19.95;;
21036;SDS011;10677;50.942;4.028;2023-07-02T01:17:03;39.40;;;19.42;;
21036;SDS011;10677;50.942;4.028;2023-07-02T01:19:47;39.38;;;18.95;;
21036;SDS011;10677;50.942;4.028;2023-07-02T01:22:18;40.55;;;18.33;;
21036;SDS011;10677;50.942;4.028;2023-07-02T01:24:48;43.30;;;19.70;;
21036;SDS011;10677;50.942;4.028;2023-07-02T01:27:15;39.45;;;19.23;;
21036;SDS011;10677;50.942;4.028;2023-07-02T01:29:41;39.72;;;19.45;;
21036;SDS011;10677;50.942;4.028;2023-07-02T01:32:09;42.40;;;19.52;;
21036;SDS011;10677;50.942;4.028;2023-07-02T01:34:36;36.78;;;18.27;;
21036;SDS011;10677;50.942;4.028;2023-07-02T01:37:02;41.70;;;18.80;;
21036;SDS011;10677;50.942;4.028;2023-07-02T01:39:29;44.83;;;19.60;;
21036;SDS011;10677;50.942;4.028;2023-07-02T01:41:56;42.53;;;19.45;;
21036;SDS011;10677;50.942;4.028;2023-07-02T01:44:35;45.72;;;19.63;;
21036;SDS011;10677;50.942;4.028;2023-07-02T01:47:02;42.58;;;21.00;;
21036;SDS011;10677;50.942;4.028;2023-07-02T01:49:28;36.50;;;18.83;;
21036;SDS011;10677;50.942;4.028;2023-07-02T01:51:54;51.30;;;21.00;;
21036;SDS011;10677;50.942;4.028;2023-07-02T01:54:22;45.22;;;20.75;;
21036;SDS011;10677;50.942;4.028;2023-07-02T01:56:48;42.95;;;21.85;;
21036;SDS011;10677;50.942;4.028;2023-07-02T01:59:14;46.22;;;20.27;;
21036;SDS011;10677;50.942;4.028;2023-07-02T02:01:40;50.47;;;20.73;;
21036;SDS011;10677;50.942;4.028;2023-07-02T02:04:06;43.28;;;22.17;;
21036;SDS011;10677;50.942;4.028;2023-07-02T02:06:33;44.60;;;20.90;;
21036;SDS011;10677;50.942;4.028;2023-07-02T02:08:59;43.45;;;20.00;;
21036;SDS011;10677;50.942;4.028;2023-07-02T02:11:25;41.90;;;20.13;;
21036;SDS011;10677;50.942;4.028;2023-07-02T02:13:51;46.55;;;20.27;;
21036;SDS011;10677;50.942;4.028;2023-07-02T02:16:16;44.17;;;20.52;;
21036;SDS011;10677;50.942;4.028;2023-07-02T02:18:43;45.83;;;20.40;;
21036;SDS011;10677;50.942;4.028;2023-07-02T02:21:08;46.65;;;21.30;;
21036;SDS011;10677;50.942;4.028;2023-07-02T02:23:34;47.30;;;20.27;;
21036;SDS011;10677;50.942;4.028;2023-07-02T02:26:00;52.65;;;22.73;;
21036;SDS011;10677;50.942;4.028;2023-07-02T02:28:25;43.72;;;20.45;;
21036;SDS011;10677;50.942;4.028;2023-07-02T02:30:51;44.60;;;20.90;;
21036;SDS011;10677;50.942;4.028;2023-07-02T02:33:17;40.38;;;21.33;;
21036;SDS011;10677;50.942;4.028;2023-07-02T02:35:42;49.60;;;20.60;;
21036;SDS011;10677;50.942;4.028;2023-07-02T02:38:08;48.92;;;22.30;;
21036;SDS011;10677;50.942;4.028;2023-07-02T02:40:33;45.22;;;21.15;;
21036;SDS011;10677;50.942;4.028;2023-07-02T02:42:59;41.42;;;20.10;;
21036;SDS011;10677;50.942;4.028;2023-07-02T02:45:25;43.85;;;20.65;;
21036;SDS011;10677;50.942;4.028;2023-07-02T02:47:51;47.85;;;22.48;;
21036;SDS011;10677;50.942;4.028;2023-07-02T02:50:16;48.08;;;22.00;;
21036;SDS011;10677;50.942;4.028;2023-07-02T02:52:42;46.72;;;21.75;;
21036;SDS011;10677;50.942;4.028;2023-07-02T02:55:09;49.35;;;22.00;;
21036;SDS011;10677;50.942;4.028;2023-07-02T02:57:38;47.78;;;21.77;;
21036;SDS011;10677;50.942;4.028;2023-07-02T03:00:04;47.50;;;21.65;;
21036;SDS011;10677;50.942;4.028;2023-07-02T03:02:30;50.60;;;22.70;;
21036;SDS011;10677;50.942;4.028;2023-07-02T03:04:55;47.28;;;21.10;;
21036;SDS011;10677;50.942;4.028;2023-07-02T03:07:22;45.97;;;22.30;;
21036;SDS011;10677;50.942;4.028;2023-07-02T03:09:47;52.15;;;23.67;;
21036;SDS011;10677;50.942;4.028;2023-07-02T03:12:13;52.40;;;22.15;;
21036;SDS011;10677;50.942;4.028;2023-07-02T03:14:39;48.20;;;22.35;;
21036;SDS011;10677;50.942;4.028;2023-07-02T03:17:04;49.22;;;21.58;;
21036;SDS011;10677;50.942;4.028;2023-07-02T03:19:30;57.38;;;23.10;;
21036;SDS011;10677;50.942;4.028;2023-07-02T03:21:56;48.53;;;23.38;;
21036;SDS011;10677;50.942;4.028;2023-07-02T03:24:21;54.67;;;23.02;;
21036;SDS011;10677;50.942;4.028;2023-07-02T03:26:47;50.00;;;21.67;;
21036;SDS011;10677;50.942;4.028;2023-07-02T03:29:12;54.08;;;22.98;;
21036;SDS011;10677;50.942;4.028;2023-07-02T03:31:38;47.05;;;22.20;;
21036;SDS011;10677;50.942;4.028;2023-07-02T03:34:08;44.13;;;21.35;;
21036;SDS011;10677;50.942;4.028;2023-07-02T03:36:35;49.95;;;23.05;;
21036;SDS011;10677;50.942;4.028;2023-07-02T03:39:01;50.78;;;22.20;;
21036;SDS011;10677;50.942;4.028;2023-07-02T03:41:27;51.78;;;22.88;;
21036;SDS011;10677;50.942;4.028;2023-07-02T03:43:55;50.05;;;22.20;;
21036;SDS011;10677;50.942;4.028;2023-07-02T03:46:20;53.63;;;22.83;;
21036;SDS011;10677;50.942;4.028;2023-07-02T03:48:46;49.13;;;23.52;;
21036;SDS011;10677;50.942;4.028;2023-07-02T03:51:12;52.42;;;22.40;;
21036;SDS011;10677;50.942;4.028;2023-07-02T03:53:40;50.03;;;22.52;;
21036;SDS011;10677;50.942;4.028;2023-07-02T03:56:06;56.88;;;22.17;;
21036;SDS011;10677;50.942;4.028;2023-07-02T03:58:32;47.67;;;23.42;;
21036;SDS011;10677;50.942;4.028;2023-07-02T04:00:58;51.50;;;22.70;;
21036;SDS011;10677;50.942;4.028;2023-07-02T04:03:24;54.83;;;22.70;;
21036;SDS011;10677;50.942;4.028;2023-07-02T04:05:50;53.35;;;22.77;;
21036;SDS011;10677;50.942;4.028;2023-07-02T04:08:16;51.55;;;22.27;;
21036;SDS011;10677;50.942;4.028;2023-07-02T04:10:41;51.35;;;22.50;;
21036;SDS011;10677;50.942;4.028;2023-07-02T04:13:07;55.40;;;23.00;;
21036;SDS011;10677;50.942;4.028;2023-07-02T04:15:33;61.13;;;24.25;;
21036;SDS011;10677;50.942;4.028;2023-07-02T04:18:00;47.05;;;22.63;;
21036;SDS011;10677;50.942;4.028;2023-07-02T04:20:25;49.80;;;23.38;;
21036;SDS011;10677;50.942;4.028;2023-07-02T04:22:51;55.58;;;21.42;;
21036;SDS011;10677;50.942;4.028;2023-07-02T04:25:16;49.70;;;22.48;;
21036;SDS011;10677;50.942;4.028;2023-07-02T04:27:42;45.60;;;22.52;;
21036;SDS011;10677;50.942;4.028;2023-07-02T04:30:09;50.40;;;22.73;;
21036;SDS011;10677;50.942;4.028;2023-07-02T04:32:36;48.03;;;22.98;;
21036;SDS011;10677;50.942;4.028;2023-07-02T04:35:04;47.35;;;21.85;;
21036;SDS011;10677;50.942;4.028;2023-07-02T04:37:34;54.28;;;22.90;;
21036;SDS011;10677;50.942;4.028;2023-07-02T04:40:00;50.33;;;22.80;;
21036;SDS011;10677;50.942;4.028;2023-07-02T04:42:27;53.05;;;22.42;;
21036;SDS011;10677;50.942;4.028;2023-07-02T04:44:53;56.80;;;22.45;;
21036;SDS011;10677;50.942;4.028;2023-07-02T04:47:19;47.95;;;22.27;;
21036;SDS011;10677;50.942;4.028;2023-07-02T04:49:45;51.72;;;22.58;;
21036;SDS011;10677;50.942;4.028;2023-07-02T04:52:11;51.20;;;22.63;;
21036;SDS011;10677;50.942;4.028;2023-07-02T04:54:37;50.60;;;22.27;;
21036;SDS011;10677;50.942;4.028;2023-07-02T04:57:02;55.28;;;23.48;;
21036;SDS011;10677;50.942;4.028;2023-07-02T04:59:28;51.15;;;22.63;;
21036;SDS011;10677;50.942;4.028;2023-07-02T05:01:54;49.90;;;23.08;;
21036;SDS011;10677;50.942;4.028;2023-07-02T05:04:20;48.53;;;22.42;;
21036;SDS011;10677;50.942;4.028;2023-07-02T05:06:45;48.08;;;22.70;;
21036;SDS011;10677;50.942;4.028;2023-07-02T05:09:11;51.55;;;23.10;;
21036;SDS011;10677;50.942;4.028;2023-07-02T05:11:38;59.17;;;23.25;;
21036;SDS011;10677;50.942;4.028;2023-07-02T05:14:04;48.70;;;23.88;;
21036;SDS011;10677;50.942;4.028;2023-07-02T05:16:30;48.17;;;21.63;;
21036;SDS011;10677;50.942;4.028;2023-07-02T05:18:55;48.08;;;22.15;;
21036;SDS011;10677;50.942;4.028;2023-07-02T05:21:21;45.78;;;22.88;;
21036;SDS011;10677;50.942;4.028;2023-07-02T05:23:47;47.30;;;21.80;;
21036;SDS011;10677;50.942;4.028;2023-07-02T05:26:13;48.33;;;20.67;;
21036;SDS011;10677;50.942;4.028;2023-07-02T05:28:39;44.67;;;20.50;;
21036;SDS011;10677;50.942;4.028;2023-07-02T05:31:04;46.78;;;20.38;;
21036;SDS011;10677;50.942;4.028;2023-07-02T05:33:30;50.63;;;22.00;;
21036;SDS011;10677;50.942;4.028;2023-07-02T05:35:58;44.10;;;20.27;;
21036;SDS011;10677;50.942;4.028;2023-07-02T05:38:24;42.80;;;19.13;;
21036;SDS011;10677;50.942;4.028;2023-07-02T05:40:50;43.80;;;20.60;;
21036;SDS011;10677;50.942;4.028;2023-07-02T05:43:16;40.92;;;19.15;;
21036;SDS011;10677;50.942;4.028;2023-07-02T05:45:41;41.10;;;19.52;;
21036;SDS011;10677;50.942;4.028;2023-07-02T05:48:07;39.17;;;17.85;;
21036;SDS011;10677;50.942;4.028;2023-07-02T05:50:33;40.70;;;18.80;;
21036;SDS011;10677;50.942;4.028;2023-07-02T05:52:58;43.63;;;18.45;;
21036;SDS011;10677;50.942;4.028;2023-07-02T05:55:24;38.70;;;17.65;;
21036;SDS011;10677;50.942;4.028;2023-07-02T05:57:50;35.65;;;18.02;;
21036;SDS011;10677;50.942;4.028;2023-07-02T06:00:15;39.22;;;17.00;;
21036;SDS011;10677;50.942;4.028;2023-07-02T06:02:41;39.42;;;17.40;;
21036;SDS011;10677;50.942;4.028;2023-07-02T06:05:07;36.47;;;17.50;;
21036;SDS011;10677;50.942;4.028;2023-07-02T06:07:33;37.30;;;17.02;;
21036;SDS011;10677;50.942;4.028;2023-07-02T06:10:00;40.00;;;17.20;;
21036;SDS011;10677;50.942;4.028;2023-07-02T06:12:25;37.88;;;17.08;;
21036;SDS011;10677;50.942;4.028;2023-07-02T06:14:51;39.72;;;17.45;;
21036;SDS011;10677;50.942;4.028;2023-07-02T06:17:16;34.55;;;16.35;;
21036;SDS011;10677;50.942;4.028;2023-07-02T06:19:44;31.17;;;15.77;;
21036;SDS011;10677;50.942;4.028;2023-07-02T06:22:09;32.17;;;15.13;;
21036;SDS011;10677;50.942;4.028;2023-07-02T06:24:35;32.95;;;15.65;;
21036;SDS011;10677;50.942;4.028;2023-07-02T06:27:01;33.17;;;15.52;;
21036;SDS011;10677;50.942;4.028;2023-07-02T06:29:27;36.63;;;15.38;;
21036;SDS011;10677;50.942;4.028;2023-07-02T06:31:54;33.47;;;15.07;;
21036;SDS011;10677;50.942;4.028;2023-07-02T06:34:19;35.75;;;14.50;;
21036;SDS011;10677;50.942;4.028;2023-07-02T06:36:45;31.05;;;14.27;;
21036;SDS011;10677;50.942;4.028;2023-07-02T06:39:11;29.92;;;14.23;;
21036;SDS011;10677;50.942;4.028;2023-07-02T06:41:36;25.15;;;13.27;;
21036;SDS011;10677;50.942;4.028;2023-07-02T06:44:02;29.40;;;14.88;;
21036;SDS011;10677;50.942;4.028;2023-07-02T06:46:28;27.92;;;14.55;;
21036;SDS011;10677;50.942;4.028;2023-07-02T06:48:54;30.83;;;13.23;;
21036;SDS011;10677;50.942;4.028;2023-07-02T06:51:20;27.17;;;13.07;;
21036;SDS011;10677;50.942;4.028;2023-07-02T06:53:47;28.30;;;12.70;;
21036;SDS011;10677;50.942;4.028;2023-07-02T06:56:13;29.95;;;12.30;;
21036;SDS011;10677;50.942;4.028;2023-07-02T06:58:42;26.92;;;11.88;;
21036;SDS011;10677;50.942;4.028;2023-07-02T07:01:08;28.02;;;13.13;;
21036;SDS011;10677;50.942;4.028;2023-07-02T07:03:34;29.15;;;12.57;;
21036;SDS011;10677;50.942;4.028;2023-07-02T07:06:00;24.40;;;11.50;;
21036;SDS011;10677;50.942;4.028;2023-07-02T07:08:26;24.40;;;11.68;;
21036;SDS011;10677;50.942;4.028;2023-07-02T07:10:52;25.08;;;11.70;;
21036;SDS011;10677;50.942;4.028;2023-07-02T07:13:17;24.85;;;12.02;;
21036;SDS011;10677;50.942;4.028;2023-07-02T07:15:43;24.67;;;11.65;;
21036;SDS011;10677;50.942;4.028;2023-07-02T07:18:09;25.08;;;12.05;;
21036;SDS011;10677;50.942;4.028;2023-07-02T07:20:35;23.05;;;11.60;;
21036;SDS011;10677;50.942;4.028;2023-07-02T07:23:02;21.67;;;11.00;;
21036;SDS011;10677;50.942;4.028;2023-07-02T07:25:28;25.08;;;10.52;;
21036;SDS011;10677;50.942;4.028;2023-07-02T07:27:54;23.23;;;11.23;;
21036;SDS011;10677;50.942;4.028;2023-07-02T07:30:19;21.38;;;9.27;;
21036;SDS011;10677;50.942;4.028;2023-07-02T07:32:48;24.75;;;10.07;;
21036;SDS011;10677;50.942;4.028;2023-07-02T07:35:18;21.15;;;9.25;;
21036;SDS011;10677;50.942;4.028;2023-07-02T07:37:45;25.02;;;9.90;;
21036;SDS011;10677;50.942;4.028;2023-07-02T07:40:11;20.73;;;9.45;;
21036;SDS011;10677;50.942;4.028;2023-07-02T07:42:37;21.35;;;9.77;;
21036;SDS011;10677;50.942;4.028;2023-07-02T07:45:03;19.73;;;9.80;;
21036;SDS011;10677;50.942;4.028;2023-07-02T07:47:29;21.27;;;8.82;;
21036;SDS011;10677;50.942;4.028;2023-07-02T07:49:55;17.48;;;9.00;;
21036;SDS011;10677;50.942;4.028;2023-07-02T07:52:20;20.05;;;8.77;;
21036;SDS011;10677;50.942;4.028;2023-07-02T07:54:46;17.95;;;8.93;;
21036;SDS011;10677;50.942;4.028;2023-07-02T07:57:12;23.60;;;9.45;;
21036;SDS011;10677;50.942;4.028;2023-07-02T07:59:37;24.52;;;9.85;;
21036;SDS011;10677;50.942;4.028;2023-07-02T08:02:03;21.38;;;8.75;;
21036;SDS011;10677;50.942;4.028;2023-07-02T08:04:29;19.23;;;9.07;;
21036;SDS011;10677;50.942;4.028;2023-07-02T08:06:55;25.05;;;9.90;;
21036;SDS011;10677;50.942;4.028;2023-07-02T08:09:22;24.10;;;10.07;;
21036;SDS011;10677;50.942;4.028;2023-07-02T08:11:48;27.15;;;9.18;;
21036;SDS011;10677;50.942;4.028;2023-07-02T08:14:14;26.08;;;9.40;;
21036;SDS011;10677;50.942;4.028;2023-07-02T08:16:41;25.65;;;9.68;;
21036;SDS011;10677;50.942;4.028;2023-07-02T08:19:06;20.98;;;9.30;;
21036;SDS011;10677;50.942;4.028;2023-07-02T08:21:32;22.17;;;10.18;;
21036;SDS011;10677;50.942;4.028;2023-07-02T08:23:58;20.42;;;9.93;;
21036;SDS011;10677;50.942;4.028;2023-07-02T08:26:23;23.25;;;10.80;;
21036;SDS011;10677;50.942;4.028;2023-07-02T08:28:49;23.20;;;9.68;;
21036;SDS011;10677;50.942;4.028;2023-07-02T08:31:15;20.38;;;9.98;;
21036;SDS011;10677;50.942;4.028;2023-07-02T08:33:41;22.92;;;10.00;;
21036;SDS011;10677;50.942;4.028;2023-07-02T08:36:07;25.40;;;10.40;;
21036;SDS011;10677;50.942;4.028;2023-07-02T08:38:32;21.20;;;9.73;;
21036;SDS011;10677;50.942;4.028;2023-07-02T08:40:58;21.80;;;10.70;;
21036;SDS011;10677;50.942;4.028;2023-07-02T08:43:23;26.55;;;11.95;;
21036;SDS011;10677;50.942;4.028;2023-07-02T08:45:51;25.10;;;11.10;;
21036;SDS011;10677;50.942;4.028;2023-07-02T08:48:18;26.92;;;10.68;;
21036;SDS011;10677;50.942;4.028;2023-07-02T08:50:48;27.20;;;10.15;;
21036;SDS011;10677;50.942;4.028;2023-07-02T08:53:14;26.75;;;10.88;;
21036;SDS011;10677;50.942;4.028;2023-07-02T08:55:40;23.00;;;11.25;;
21036;SDS011;10677;50.942;4.028;2023-07-02T08:58:06;22.10;;;10.60;;
21036;SDS011;10677;50.942;4.028;2023-07-02T09:00:31;25.30;;;11.00;;
21036;SDS011;10677;50.942;4.028;2023-07-02T09:03:14;24.40;;;10.60;;
21036;SDS011;10677;50.942;4.028;2023-07-02T09:05:50;27.98;;;11.02;;
21036;SDS011;10677;50.942;4.028;2023-07-02T09:08:24;22.10;;;10.77;;
21036;SDS011;10677;50.942;4.028;2023-07-02T09:10:53;24.92;;;10.82;;
21036;SDS011;10677;50.942;4.028;2023-07-02T09:13:19;24.33;;;10.65;;
21036;SDS011;10677;50.942;4.028;2023-07-02T09:15:45;25.33;;;11.02;;
21036;SDS011;10677;50.942;4.028;2023-07-02T09:18:14;23.02;;;10.85;;
21036;SDS011;10677;50.942;4.028;2023-07-02T09:20:44;26.23;;;11.68;;
21036;SDS011;10677;50.942;4.028;2023-07-02T09:23:10;26.55;;;11.48;;
21036;SDS011;10677;50.942;4.028;2023-07-02T09:25:37;28.77;;;12.07;;
21036;SDS011;10677;50.942;4.028;2023-07-02T09:28:16;25.08;;;11.93;;
21036;SDS011;10677;50.942;4.028;2023-07-02T09:30:53;21.50;;;10.95;;
21036;SDS011;10677;50.942;4.028;2023-07-02T09:33:25;23.60;;;11.48;;
21036;SDS011;10677;50.942;4.028;2023-07-02T09:35:52;23.48;;;10.68;;
21036;SDS011;10677;50.942;4.028;2023-07-02T09:38:19;28.17;;;12.05;;
21036;SDS011;10677;50.942;4.028;2023-07-02T09:40:46;25.83;;;10.73;;
21036;SDS011;10677;50.942;4.028;2023-07-02T09:43:14;22.98;;;9.88;;
21036;SDS011;10677;50.942;4.028;2023-07-02T09:45:44;24.63;;;10.30;;
21036;SDS011;10677;50.942;4.028;2023-07-02T09:48:14;26.45;;;10.40;;
21036;SDS011;10677;50.942;4.028;2023-07-02T09:50:42;23.27;;;10.63;;
21036;SDS011;10677;50.942;4.028;2023-07-02T09:53:08;24.77;;;11.30;;
21036;SDS011;10677;50.942;4.028;2023-07-02T09:55:35;24.73;;;11.18;;
21036;SDS011;10677;50.942;4.028;2023-07-02T09:58:01;23.83;;;10.77;;
21036;SDS011;10677;50.942;4.028;2023-07-02T10:00:27;26.55;;;10.60;;
21036;SDS011;10677;50.942;4.028;2023-07-02T10:02:53;21.75;;;9.88;;
21036;SDS011;10677;50.942;4.028;2023-07-02T10:05:31;21.58;;;9.68;;
21036;SDS011;10677;50.942;4.028;2023-07-02T10:07:59;21.88;;;9.95;;
21036;SDS011;10677;50.942;4.028;2023-07-02T10:10:42;25.65;;;10.98;;
21036;SDS011;10677;50.942;4.028;2023-07-02T10:13:08;24.00;;;10.32;;
21036;SDS011;10677;50.942;4.028;2023-07-02T10:15:34;20.15;;;10.13;;
21036;SDS011;10677;50.942;4.028;2023-07-02T10:18:04;21.25;;;10.63;;
21036;SDS011;10677;50.942;4.028;2023-07-02T10:20:40;23.58;;;10.90;;
21036;SDS011;10677;50.942;4.028;2023-07-02T10:23:07;21.85;;;9.80;;
21036;SDS011;10677;50.942;4.028;2023-07-02T10:25:34;25.65;;;9.48;;
21036;SDS011;10677;50.942;4.028;2023-07-02T10:28:13;18.58;;;8.95;;
21036;SDS011;10677;50.942;4.028;2023-07-02T10:30:42;22.23;;;9.15;;
21036;SDS011;10677;50.942;4.028;2023-07-02T10:35:34;24.95;;;9.88;;
21036;SDS011;10677;50.942;4.028;2023-07-02T10:38:00;23.60;;;9.95;;
21036;SDS011;10677;50.942;4.028;2023-07-02T10:40:26;16.80;;;7.75;;
21036;SDS011;10677;50.942;4.028;2023-07-02T10:42:52;17.75;;;8.73;;
21036;SDS011;10677;50.942;4.028;2023-07-02T10:45:18;22.05;;;8.50;;
21036;SDS011;10677;50.942;4.028;2023-07-02T10:47:45;15.05;;;7.65;;
21036;SDS011;10677;50.942;4.028;2023-07-02T10:50:20;16.95;;;7.63;;
21036;SDS011;10677;50.942;4.028;2023-07-02T10:52:48;17.73;;;8.32;;
21036;SDS011;10677;50.942;4.028;2023-07-02T10:55:20;18.05;;;8.52;;
21036;SDS011;10677;50.942;4.028;2023-07-02T10:57:47;17.88;;;8.07;;
21036;SDS011;10677;50.942;4.028;2023-07-02T11:00:16;18.92;;;8.02;;
21036;SDS011;10677;50.942;4.028;2023-07-02T11:02:42;18.65;;;7.75;;
21036;SDS011;10677;50.942;4.028;2023-07-02T11:05:08;18.15;;;8.25;;
21036;SDS011;10677;50.942;4.028;2023-07-02T11:07:37;23.02;;;10.23;;
21036;SDS011;10677;50.942;4.028;2023-07-02T11:10:04;17.63;;;8.77;;
21036;SDS011;10677;50.942;4.028;2023-07-02T11:12:31;20.75;;;8.65;;
21036;SDS011;10677;50.942;4.028;2023-07-02T11:15:09;21.98;;;12.02;;
21036;SDS011;10677;50.942;4.028;2023-07-02T11:17:37;19.63;;;10.25;;
21036;SDS011;10677;50.942;4.028;2023-07-02T11:20:05;18.98;;;9.30;;
21036;SDS011;10677;50.942;4.028;2023-07-02T11:22:37;22.15;;;9.23;;
21036;SDS011;10677;50.942;4.028;2023-07-02T11:25:13;16.77;;;8.48;;
21036;SDS011;10677;50.942;4.028;2023-07-02T11:27:42;18.48;;;8.27;;
21036;SDS011;10677;50.942;4.028;2023-07-02T11:30:09;17.27;;;8.60;;
21036;SDS011;10677;50.942;4.028;2023-07-02T11:32:48;22.85;;;8.70;;
21036;SDS011;10677;50.942;4.028;2023-07-02T11:35:18;18.17;;;8.38;;
21036;SDS011;10677;50.942;4.028;2023-07-02T11:37:45;19.77;;;8.32;;
21036;SDS011;10677;50.942;4.028;2023-07-02T11:40:11;15.75;;;8.15;;
21036;SDS011;10677;50.942;4.028;2023-07-02T11:42:38;16.45;;;8.43;;
21036;SDS011;10677;50.942;4.028;2023-07-02T11:45:06;18.73;;;8.18;;
21036;SDS011;10677;50.942;4.028;2023-07-02T11:47:32;19.95;;;8.77;;
21036;SDS011;10677;50.942;4.028;2023-07-02T11:49:58;19.90;;;8.65;;
21036;SDS011;10677;50.942;4.028;2023-07-02T11:52:26;20.17;;;8.68;;
21036;SDS011;10677;50.942;4.028;2023-07-02T11:54:52;14.32;;;7.70;;
21036;SDS011;10677;50.942;4.028;2023-07-02T11:57:17;19.25;;;8.65;;
21036;SDS011;10677;50.942;4.028;2023-07-02T11:59:43;17.33;;;7.78;;
21036;SDS011;10677;50.942;4.028;2023-07-02T12:02:08;16.10;;;7.07;;
21036;SDS011;10677;50.942;4.028;2023-07-02T12:04:34;18.15;;;8.38;;
21036;SDS011;10677;50.942;4.028;2023-07-02T12:07:01;21.48;;;8.60;;
21036;SDS011;10677;50.942;4.028;2023-07-02T12:09:28;17.02;;;8.38;;
21036;SDS011;10677;50.942;4.028;2023-07-02T12:11:54;18.40;;;7.18;;
21036;SDS011;10677;50.942;4.028;2023-07-02T12:14:20;17.00;;;7.35;;
21036;SDS011;10677;50.942;4.028;2023-07-02T12:16:46;21.98;;;8.30;;
21036;SDS011;10677;50.942;4.028;2023-07-02T12:19:11;18.15;;;7.78;;
21036;SDS011;10677;50.942;4.028;2023-07-02T12:21:37;17.98;;;7.68;;
21036;SDS011;10677;50.942;4.028;2023-07-02T12:24:02;17.98;;;7.68;;
21036;SDS011;10677;50.942;4.028;2023-07-02T12:26:33;15.02;;;7.05;;
21036;SDS011;10677;50.942;4.028;2023-07-02T12:28:59;19.33;;;8.13;;
21036;SDS011;10677;50.942;4.028;2023-07-02T12:31:25;17.38;;;7.18;;
21036;SDS011;10677;50.942;4.028;2023-07-02T12:33:50;16.92;;;7.75;;
21036;SDS011;10677;50.942;4.028;2023-07-02T12:36:16;18.88;;;7.22;;
21036;SDS011;10677;50.942;4.028;2023-07-02T12:38:42;17.10;;;7.20;;
21036;SDS011;10677;50.942;4.028;2023-07-02T12:41:07;14.52;;;6.72;;
21036;SDS011;10677;50.942;4.028;2023-07-02T12:43:33;18.88;;;7.55;;
21036;SDS011;10677;50.942;4.028;2023-07-02T12:45:58;21.25;;;7.30;;
21036;SDS011;10677;50.942;4.028;2023-07-02T12:48:24;16.77;;;7.32;;
21036;SDS011;10677;50.942;4.028;2023-07-02T12:50:56;16.88;;;7.07;;
21036;SDS011;10677;50.942;4.028;2023-07-02T12:53:24;18.13;;;7.35;;
21036;SDS011;10677;50.942;4.028;2023-07-02T12:55:50;21.30;;;6.60;;
21036;SDS011;10677;50.942;4.028;2023-07-02T12:58:15;14.65;;;7.25;;
21036;SDS011;10677;50.942;4.028;2023-07-02T13:00:41;15.25;;;7.18;;
21036;SDS011;10677;50.942;4.028;2023-07-02T13:03:09;15.95;;;7.00;;
21036;SDS011;10677;50.942;4.028;2023-07-02T13:05:36;20.95;;;8.30;;
21036;SDS011;10677;50.942;4.028;2023-07-02T13:08:02;14.95;;;6.75;;
21036;SDS011;10677;50.942;4.028;2023-07-02T13:10:31;18.05;;;7.07;;
21036;SDS011;10677;50.942;4.028;2023-07-02T13:12:58;17.33;;;6.85;;
21036;SDS011;10677;50.942;4.028;2023-07-02T13:15:23;17.27;;;7.22;;
21036;SDS011;10677;50.942;4.028;2023-07-02T13:17:49;15.43;;;6.72;;
21036;SDS011;10677;50.942;4.028;2023-07-02T13:20:16;17.42;;;6.72;;
21036;SDS011;10677;50.942;4.028;2023-07-02T13:22:41;17.45;;;7.05;;
21036;SDS011;10677;50.942;4.028;2023-07-02T13:25:07;17.33;;;7.32;;
21036;SDS011;10677;50.942;4.028;2023-07-02T13:27:33;18.00;;;6.72;;
21036;SDS011;10677;50.942;4.028;2023-07-02T13:29:59;14.65;;;7.05;;
21036;SDS011;10677;50.942;4.028;2023-07-02T13:32:24;16.38;;;7.72;;
21036;SDS011;10677;50.942;4.028;2023-07-02T13:34:50;13.40;;;6.25;;
21036;SDS011;10677;50.942;4.028;2023-07-02T13:37:16;17.48;;;7.45;;
21036;SDS011;10677;50.942;4.028;2023-07-02T13:39:45;14.25;;;7.32;;
21036;SDS011;10677;50.942;4.028;2023-07-02T13:42:11;14.18;;;7.28;;
21036;SDS011;10677;50.942;4.028;2023-07-02T13:44:37;12.25;;;6.53;;
21036;SDS011;10677;50.942;4.028;2023-07-02T13:47:02;13.43;;;6.43;;
21036;SDS011;10677;50.942;4.028;2023-07-02T13:49:28;16.15;;;7.18;;
21036;SDS011;10677;50.942;4.028;2023-07-02T13:51:54;17.20;;;7.45;;
21036;SDS011;10677;50.942;4.028;2023-07-02T13:54:19;15.07;;;6.53;;
21036;SDS011;10677;50.942;4.028;2023-07-02T13:56:46;12.07;;;7.03;;
21036;SDS011;10677;50.942;4.028;2023-07-02T13:59:12;14.30;;;6.80;;
21036;SDS011;10677;50.942;4.028;2023-07-02T14:01:39;16.50;;;6.40;;
21036;SDS011;10677;50.942;4.028;2023-07-02T14:04:04;13.30;;;6.38;;
21036;SDS011;10677;50.942;4.028;2023-07-02T14:06:30;13.77;;;6.95;;
21036;SDS011;10677;50.942;4.028;2023-07-02T14:08:56;14.52;;;6.68;;
21036;SDS011;10677;50.942;4.028;2023-07-02T14:11:22;12.52;;;6.40;;
21036;SDS011;10677;50.942;4.028;2023-07-02T14:13:49;15.25;;;6.88;;
21036;SDS011;10677;50.942;4.028;2023-07-02T14:16:15;12.02;;;5.50;;
21036;SDS011;10677;50.942;4.028;2023-07-02T14:18:41;11.88;;;5.68;;
21036;SDS011;10677;50.942;4.028;2023-07-02T14:21:06;11.95;;;5.70;;
21036;SDS011;10677;50.942;4.028;2023-07-02T14:23:32;14.05;;;5.85;;
21036;SDS011;10677;50.942;4.028;2023-07-02T14:25:58;12.82;;;5.68;;
21036;SDS011;10677;50.942;4.028;2023-07-02T14:28:24;11.88;;;5.90;;